createdAt,value
2018-12-03T00:01:32.256Z,0.63
2018-12-03T00:04:06.894Z,0.60
2018-12-03T00:06:35.781Z,0.63
2018-12-03T00:09:07.578Z,0.60
2018-12-03T00:11:37.046Z,0.47
2018-12-03T00:14:05.989Z,0.50
2018-12-03T00:16:34.835Z,0.70
2018-12-03T00:19:04.081Z,0.60
2018-12-03T00:21:32.915Z,0.87
2018-12-03T00:24:02.582Z,0.60
2018-12-03T00:26:33.039Z,0.63
2018-12-03T00:29:01.849Z,0.70
2018-12-03T00:31:30.677Z,0.50
2018-12-03T00:33:59.549Z,0.60
2018-12-03T00:36:28.391Z,0.90
2018-12-03T00:38:57.409Z,0.50
2018-12-03T00:41:26.253Z,0.70
2018-12-03T00:43:55.069Z,0.60
2018-12-03T00:46:23.886Z,0.60
2018-12-03T00:48:54.081Z,0.50
2018-12-03T00:51:23.967Z,0.60
2018-12-03T00:53:52.805Z,0.50
2018-12-03T00:56:23.001Z,0.77
2018-12-03T00:58:51.873Z,0.80
2018-12-03T01:01:20.777Z,0.50
2018-12-03T01:03:49.685Z,0.63
2018-12-03T01:06:18.502Z,0.73
2018-12-03T01:08:47.413Z,0.50
2018-12-03T01:11:16.238Z,1.13
2018-12-03T01:13:45.070Z,0.40
2018-12-03T01:16:13.886Z,0.47
2018-12-03T01:18:42.730Z,0.53
2018-12-03T01:21:12.007Z,1.17
2018-12-03T01:23:40.821Z,0.40
2018-12-03T01:26:11.322Z,0.60
2018-12-03T01:28:40.192Z,0.53
2018-12-03T01:31:09.090Z,0.60
2018-12-03T01:33:37.997Z,0.50
2018-12-03T01:36:06.813Z,0.60
2018-12-03T01:38:35.852Z,0.60
2018-12-03T01:41:04.952Z,0.50
2018-12-03T01:43:36.528Z,0.50
2018-12-03T01:46:05.813Z,0.40
2018-12-03T01:48:34.630Z,0.63
2018-12-03T01:51:03.457Z,1.37
2018-12-03T01:53:32.282Z,0.33
2018-12-03T01:56:01.901Z,0.40
2018-12-03T01:58:30.729Z,0.50
2018-12-03T02:00:59.553Z,0.40
2018-12-03T02:03:28.420Z,0.60
2018-12-03T02:05:57.256Z,0.50
2018-12-03T02:08:26.142Z,0.63
2018-12-03T02:10:55.041Z,1.03
2018-12-03T02:13:23.858Z,0.33
2018-12-03T02:15:52.678Z,0.77
2018-12-03T02:18:21.521Z,0.73
2018-12-03T02:20:50.985Z,0.50
2018-12-03T02:23:19.806Z,0.50
2018-12-03T02:25:50.429Z,0.40
2018-12-03T02:28:19.265Z,0.40
2018-12-03T02:30:48.103Z,0.30
2018-12-03T02:33:16.938Z,0.40
2018-12-03T02:35:45.775Z,0.30
2018-12-03T02:38:17.340Z,0.67
2018-12-03T02:40:46.165Z,0.40
2018-12-03T02:43:14.985Z,0.40
2018-12-03T02:45:43.889Z,0.40
2018-12-03T02:48:12.717Z,0.50
2018-12-03T02:50:41.707Z,0.53
2018-12-03T02:53:10.593Z,0.50
2018-12-03T02:55:41.007Z,0.50
2018-12-03T02:58:09.838Z,0.40
2018-12-03T03:00:39.418Z,0.30
2018-12-03T03:03:08.272Z,0.40
2018-12-03T03:05:37.109Z,0.40
2018-12-03T03:08:06.454Z,0.40
2018-12-03T03:10:35.301Z,0.50
2018-12-03T03:13:04.143Z,0.50
2018-12-03T03:15:32.977Z,0.30
2018-12-03T03:18:01.851Z,0.70
2018-12-03T03:20:31.041Z,0.43
2018-12-03T03:22:59.869Z,0.40
2018-12-03T03:25:28.719Z,0.67
2018-12-03T03:27:59.039Z,0.50
2018-12-03T03:30:27.935Z,0.27
2018-12-03T03:32:58.260Z,0.60
2018-12-03T03:35:27.150Z,0.63
2018-12-03T03:37:55.973Z,0.30
2018-12-03T03:40:24.866Z,0.30
2018-12-03T03:42:53.694Z,0.30
2018-12-03T03:45:24.117Z,0.30
2018-12-03T03:47:52.958Z,0.40
2018-12-03T03:50:21.777Z,0.30
2018-12-03T03:52:50.613Z,0.47
2018-12-03T03:55:21.350Z,0.37
2018-12-03T03:57:50.177Z,0.20
2018-12-03T04:00:18.998Z,1.00
2018-12-03T04:02:47.841Z,0.83
2018-12-03T04:05:16.670Z,0.30
2018-12-03T04:07:46.214Z,0.57
2018-12-03T04:10:15.530Z,0.40
2018-12-03T04:12:45.375Z,0.30
2018-12-03T04:15:15.098Z,0.60
2018-12-03T04:17:44.093Z,0.40
2018-12-03T04:20:15.357Z,0.30
2018-12-03T04:22:45.649Z,0.40
2018-12-03T04:25:14.666Z,0.40
2018-12-03T04:27:44.705Z,0.23
2018-12-03T04:30:15.855Z,0.40
2018-12-03T04:32:44.633Z,0.63
2018-12-03T04:35:13.918Z,0.40
2018-12-03T04:37:43.497Z,0.30
2018-12-03T04:40:13.534Z,0.40
2018-12-03T04:42:42.383Z,0.40
2018-12-03T04:45:14.271Z,0.40
2018-12-03T04:47:43.638Z,0.37
2018-12-03T04:50:14.836Z,0.67
2018-12-03T04:52:46.841Z,0.30
2018-12-03T04:55:19.301Z,0.50
2018-12-03T04:57:48.456Z,0.50
2018-12-03T05:00:18.417Z,0.40
2018-12-03T05:02:49.849Z,0.30
2018-12-03T05:05:18.811Z,0.50
2018-12-03T05:07:49.684Z,1.67
2018-12-03T05:10:19.675Z,0.57
2018-12-03T05:12:49.685Z,0.60
2018-12-03T05:15:18.553Z,0.97
2018-12-03T05:17:47.398Z,0.60
2018-12-03T05:20:18.874Z,0.57
2018-12-03T05:22:47.717Z,0.40
2018-12-03T05:25:19.195Z,0.50
2018-12-03T05:27:46.345Z,0.60
2018-12-03T05:30:16.269Z,0.50
2018-12-03T05:32:45.855Z,0.40
2018-12-03T05:35:18.004Z,0.47
2018-12-03T05:37:47.018Z,0.60
2018-12-03T05:40:19.051Z,0.60
2018-12-03T05:42:47.883Z,0.50
2018-12-03T05:45:16.721Z,0.50
2018-12-03T05:47:45.859Z,0.60
2018-12-03T05:50:15.583Z,0.40
2018-12-03T05:52:45.550Z,0.70
2018-12-03T05:55:16.221Z,0.47
2018-12-03T05:57:45.528Z,0.40
2018-12-03T06:00:17.618Z,0.40
2018-12-03T06:02:47.601Z,0.40
2018-12-03T06:05:16.616Z,0.97
2018-12-03T06:07:45.458Z,0.87
2018-12-03T06:10:16.411Z,0.50
2018-12-03T06:12:45.251Z,1.43
2018-12-03T06:15:16.127Z,0.30
2018-12-03T06:17:45.665Z,0.50
2018-12-03T06:20:16.345Z,0.40
2018-12-03T06:22:45.934Z,0.50
2018-12-03T06:25:17.854Z,0.60
2018-12-03T06:27:48.586Z,0.50
2018-12-03T06:30:20.055Z,0.50
2018-12-03T06:32:48.894Z,0.83
2018-12-03T06:35:18.185Z,0.43
2018-12-03T06:37:47.385Z,0.43
2018-12-03T06:40:24.567Z,0.60
2018-12-03T06:42:53.390Z,0.47
2018-12-03T06:45:22.983Z,0.40
2018-12-03T06:47:59.375Z,0.67
2018-12-03T06:50:28.268Z,0.57
2018-12-03T06:52:57.145Z,0.50
2018-12-03T06:55:29.730Z,0.50
2018-12-03T06:57:59.644Z,0.50
2018-12-03T07:00:28.464Z,0.60
2018-12-03T07:02:57.326Z,0.70
2018-12-03T07:05:26.172Z,1.03
2018-12-03T07:07:57.529Z,3.30
2018-12-03T07:10:26.809Z,2.43
2018-12-03T07:12:58.432Z,0.70
2018-12-03T07:15:27.922Z,1.67
2018-12-03T07:17:57.541Z,0.43
2018-12-03T07:20:26.818Z,0.73
2018-12-03T07:22:55.705Z,2.00
2018-12-03T07:25:24.545Z,1.67
2018-12-03T07:27:54.783Z,1.73
2018-12-03T07:30:24.606Z,1.33
2018-12-03T07:32:53.717Z,0.80
2018-12-03T07:35:23.876Z,1.70
2018-12-03T07:37:54.973Z,1.13
2018-12-03T07:40:23.837Z,3.30
2018-12-03T07:42:53.697Z,5.60
2018-12-03T07:45:23.556Z,9.53
2018-12-03T07:47:52.417Z,9.20
2018-12-03T07:50:22.504Z,3.77
2018-12-03T07:52:51.425Z,3.77
2018-12-03T07:55:23.886Z,4.73
2018-12-03T07:57:58.465Z,3.60
2018-12-03T08:00:36.062Z,4.27
2018-12-03T08:03:05.971Z,7.03
2018-12-03T08:05:34.763Z,6.13
2018-12-03T08:08:03.758Z,6.13
2018-12-03T08:10:32.597Z,6.07
2018-12-03T08:13:01.429Z,2.00
2018-12-03T08:15:30.265Z,3.33
2018-12-03T08:18:00.928Z,2.33
2018-12-03T08:20:33.720Z,6.33
2018-12-03T08:23:05.767Z,5.47
2018-12-03T08:25:34.609Z,5.30
2018-12-03T08:28:04.730Z,5.27
2018-12-03T08:30:33.557Z,4.73
2018-12-03T08:33:02.389Z,3.13
2018-12-03T08:35:31.259Z,5.07
2018-12-03T08:38:03.386Z,5.53
2018-12-03T08:40:29.421Z,2.50
2018-12-03T08:42:58.290Z,2.77
2018-12-03T08:45:28.986Z,2.10
2018-12-03T08:47:57.854Z,11.17
2018-12-03T08:50:27.612Z,6.23
2018-12-03T08:52:57.517Z,3.40
2018-12-03T08:55:28.862Z,4.90
2018-12-03T08:57:57.755Z,3.10
2018-12-03T09:00:28.030Z,3.67
2018-12-03T09:03:02.126Z,4.83
2018-12-03T09:05:36.997Z,2.03
2018-12-03T09:08:09.047Z,5.37
2018-12-03T09:10:38.345Z,1.33
2018-12-03T09:13:10.209Z,3.40
2018-12-03T09:15:39.388Z,3.43
2018-12-03T09:18:09.545Z,1.93
2018-12-03T09:20:38.412Z,1.60
2018-12-03T09:23:07.483Z,1.20
2018-12-03T09:25:36.404Z,0.90
2018-12-03T09:28:05.705Z,3.70
2018-12-03T09:30:35.456Z,1.77
2018-12-03T09:33:06.086Z,3.67
2018-12-03T09:35:34.958Z,3.70
2018-12-03T09:38:03.823Z,3.30
2018-12-03T09:40:32.657Z,3.73
2018-12-03T09:43:01.505Z,2.17
2018-12-03T09:45:30.529Z,3.47
2018-12-03T09:47:59.397Z,6.20
2018-12-03T09:50:28.830Z,2.30
2018-12-03T09:52:59.394Z,5.53
2018-12-03T09:55:32.022Z,2.97
2018-12-03T09:58:06.641Z,2.07
2018-12-03T10:00:35.550Z,8.77
2018-12-03T10:03:12.407Z,5.17
2018-12-03T10:05:51.285Z,20.43
2018-12-03T10:08:26.956Z,14.07
2018-12-03T10:10:57.109Z,6.97
2018-12-03T10:13:26.798Z,9.07
2018-12-03T10:15:56.849Z,7.07
2018-12-03T10:18:25.718Z,8.57
2018-12-03T10:20:56.267Z,4.73
2018-12-03T10:23:25.914Z,7.17
2018-12-03T10:25:56.396Z,5.23
2018-12-03T10:28:25.899Z,4.27
2018-12-03T10:30:56.746Z,3.23
2018-12-03T10:33:29.405Z,6.17
2018-12-03T10:36:00.110Z,3.80
2018-12-03T10:38:31.862Z,5.03
2018-12-03T10:41:09.574Z,3.40
2018-12-03T10:43:38.484Z,6.37
2018-12-03T10:46:09.035Z,5.53
2018-12-03T10:48:38.046Z,5.10
2018-12-03T10:51:12.126Z,5.53
2018-12-03T10:53:41.232Z,12.60
2018-12-03T10:56:12.999Z,4.73
2018-12-03T10:58:43.910Z,4.13
2018-12-03T11:01:18.055Z,4.57
2018-12-03T11:03:52.394Z,7.73
2018-12-03T11:06:22.408Z,6.43
2018-12-03T11:08:51.306Z,1.90
2018-12-03T11:11:20.211Z,7.67
2018-12-03T11:13:49.068Z,4.13
2018-12-03T11:16:24.819Z,2.50
2018-12-03T11:18:55.542Z,3.37
2018-12-03T11:21:25.248Z,2.17
2018-12-03T11:23:54.670Z,7.07
2018-12-03T11:26:29.076Z,7.10
2018-12-03T11:28:57.994Z,4.03
2018-12-03T11:31:29.316Z,10.00
2018-12-03T11:33:58.185Z,4.07
2018-12-03T11:36:38.638Z,6.83
2018-12-03T11:39:12.842Z,4.87
2018-12-03T11:41:41.896Z,4.30
2018-12-03T11:44:10.791Z,5.13
2018-12-03T11:46:39.724Z,2.00
2018-12-03T11:49:08.948Z,5.00
2018-12-03T11:51:37.761Z,4.43
2018-12-03T11:54:06.681Z,6.13
2018-12-03T11:56:37.211Z,3.53
2018-12-03T11:59:06.178Z,1.53
2018-12-03T12:01:36.165Z,2.50
2018-12-03T12:04:39.701Z,1.80
2018-12-03T12:07:08.700Z,2.37
2018-12-03T12:09:37.616Z,4.87
2018-12-03T12:12:06.874Z,3.73
2018-12-03T12:14:38.773Z,4.67
2018-12-03T12:17:08.018Z,5.23
2018-12-03T12:19:36.937Z,3.43
2018-12-03T12:22:06.542Z,7.63
2018-12-03T12:24:37.551Z,1.43
2018-12-03T12:27:08.767Z,5.97
2018-12-03T12:29:37.930Z,5.77
2018-12-03T12:32:07.033Z,3.20
2018-12-03T12:34:36.101Z,1.20
2018-12-03T12:37:07.036Z,5.40
2018-12-03T12:39:35.993Z,2.20
2018-12-03T12:42:06.373Z,3.07
2018-12-03T12:44:35.745Z,1.30
2018-12-03T12:47:06.217Z,3.80
2018-12-03T12:49:35.306Z,1.40
2018-12-03T12:52:04.575Z,1.60
2018-12-03T12:54:35.623Z,3.87
2018-12-03T12:57:04.686Z,2.97
2018-12-03T12:59:34.641Z,5.17
2018-12-03T13:02:03.640Z,1.07
2018-12-03T13:04:33.440Z,3.70
2018-12-03T13:07:02.373Z,3.70
2018-12-03T13:09:31.350Z,1.67
2018-12-03T13:12:00.292Z,2.50
2018-12-03T13:14:30.461Z,1.20
2018-12-03T13:16:59.540Z,2.70
2018-12-03T13:19:28.847Z,6.10
2018-12-03T13:21:57.761Z,2.07
2018-12-03T13:24:28.242Z,3.00
2018-12-03T13:26:57.113Z,3.17
2018-12-03T13:29:26.069Z,12.83
2018-12-03T13:31:55.173Z,7.70
2018-12-03T13:34:24.263Z,6.47
2018-12-03T13:36:53.418Z,6.53
2018-12-03T13:39:23.438Z,3.80
2018-12-03T13:41:52.584Z,3.13
2018-12-03T13:44:22.026Z,2.90
2018-12-03T13:46:50.980Z,3.97
2018-12-03T13:49:20.965Z,5.90
2018-12-03T13:51:51.846Z,4.03
2018-12-03T13:54:21.152Z,2.00
2018-12-03T13:56:51.926Z,1.80
2018-12-03T13:59:20.901Z,1.90
2018-12-03T14:01:50.127Z,2.83
2018-12-03T14:04:21.853Z,3.10
2018-12-03T14:06:59.652Z,1.90
2018-12-03T14:09:51.217Z,3.53
2018-12-03T14:12:31.601Z,2.43
2018-12-03T14:15:09.873Z,1.43
2018-12-03T14:17:46.709Z,2.17
2018-12-03T14:20:16.438Z,1.47
2018-12-03T14:22:47.809Z,3.70
2018-12-03T14:25:17.892Z,2.10
2018-12-03T14:27:46.889Z,2.00
2018-12-03T14:30:15.890Z,4.53
2018-12-03T14:32:44.782Z,2.70
2018-12-03T14:35:14.253Z,5.17
2018-12-03T14:37:44.832Z,2.07
2018-12-03T14:40:13.964Z,1.33
2018-12-03T14:42:42.841Z,1.67
2018-12-03T14:45:12.472Z,4.17
2018-12-03T14:47:41.428Z,2.13
2018-12-03T14:50:11.531Z,4.03
2018-12-03T14:52:40.582Z,1.53
2018-12-03T14:55:11.477Z,3.40
2018-12-03T14:57:40.583Z,3.77
2018-12-03T15:00:12.184Z,1.67
2018-12-03T15:02:41.227Z,2.77
2018-12-03T15:05:11.221Z,3.33
2018-12-03T15:07:40.201Z,6.50
2018-12-03T15:10:09.891Z,7.80
2018-12-03T15:12:39.402Z,5.03
2018-12-03T15:15:09.943Z,2.10
2018-12-03T15:17:40.909Z,3.00
2018-12-03T15:20:09.920Z,3.73
2018-12-03T15:22:38.983Z,1.70
2018-12-03T15:25:11.470Z,1.53
2018-12-03T15:27:40.470Z,2.13
2018-12-03T15:30:10.535Z,3.30
2018-12-03T15:32:39.526Z,1.43
2018-12-03T15:35:10.182Z,1.60
2018-12-03T15:37:39.128Z,1.27
2018-12-03T15:40:12.595Z,1.37
2018-12-03T15:42:44.040Z,1.90
2018-12-03T15:45:14.861Z,2.93
2018-12-03T15:47:43.858Z,2.17
2018-12-03T15:50:12.894Z,2.63
2018-12-03T15:52:41.840Z,3.30
2018-12-03T15:55:13.303Z,0.60
2018-12-03T15:57:42.173Z,2.53
2018-12-03T16:00:12.355Z,3.00
2018-12-03T16:02:41.370Z,2.03
2018-12-03T16:05:14.545Z,1.70
2018-12-03T16:07:43.525Z,1.30
2018-12-03T16:10:13.755Z,2.37
2018-12-03T16:12:44.056Z,4.13
2018-12-03T16:15:13.027Z,2.17
2018-12-03T16:17:41.984Z,1.80
2018-12-03T16:20:11.527Z,1.90
2018-12-03T16:22:40.418Z,2.43
2018-12-03T16:25:09.422Z,1.77
2018-12-03T16:27:38.729Z,2.43
2018-12-03T16:30:24.189Z,0.60
2018-12-03T16:32:53.333Z,0.70
2018-12-03T16:35:22.210Z,1.00
2018-12-03T16:37:51.066Z,1.90
2018-12-03T16:40:19.993Z,0.90
2018-12-03T16:42:49.032Z,1.20
2018-12-03T16:45:18.057Z,0.73
2018-12-03T16:47:47.057Z,1.47
2018-12-03T16:50:15.905Z,4.73
2018-12-03T16:52:46.356Z,0.70
2018-12-03T16:55:16.889Z,0.50
2018-12-03T16:57:45.884Z,2.30
2018-12-03T17:00:15.145Z,0.93
2018-12-03T17:02:44.029Z,1.20
2018-12-03T17:05:14.169Z,0.97
2018-12-03T17:07:43.094Z,0.90
2018-12-03T17:10:14.467Z,1.07
2018-12-03T17:12:43.641Z,0.73
2018-12-03T17:15:12.639Z,2.33
2018-12-03T17:17:41.696Z,0.83
2018-12-03T17:20:16.676Z,2.27
2018-12-03T17:22:56.133Z,1.97
2018-12-03T17:25:27.738Z,0.73
2018-12-03T17:27:56.580Z,1.60
2018-12-03T17:30:25.639Z,0.87
2018-12-03T17:32:54.613Z,0.80
2018-12-03T17:35:23.530Z,3.23
2018-12-03T17:37:52.730Z,1.03
2018-12-03T17:40:21.772Z,0.70
2018-12-03T17:42:50.669Z,1.40
2018-12-03T17:45:19.582Z,1.17
2018-12-03T17:47:48.986Z,1.10
2018-12-03T17:50:18.352Z,0.90
2018-12-03T17:52:47.197Z,1.10
2018-12-03T17:55:17.289Z,0.83
2018-12-03T17:57:46.140Z,0.87
2018-12-03T18:00:15.258Z,0.70
2018-12-03T18:02:44.234Z,1.10
2018-12-03T18:05:14.045Z,0.67
2018-12-03T18:07:43.420Z,0.70
2018-12-03T18:10:12.319Z,0.50
2018-12-03T18:12:41.170Z,0.70
2018-12-03T18:15:10.218Z,0.97
2018-12-03T18:17:39.565Z,0.67
2018-12-03T18:20:09.564Z,1.07
2018-12-03T18:22:39.798Z,0.80
2018-12-03T18:25:08.804Z,0.70
2018-12-03T18:27:38.005Z,1.17
2018-12-03T18:30:08.566Z,1.10
2018-12-03T18:32:37.493Z,1.27
2018-12-03T18:35:06.886Z,1.33
2018-12-03T18:37:36.153Z,1.90
2018-12-03T18:40:06.374Z,0.70
2018-12-03T18:42:35.216Z,0.80
2018-12-03T18:45:05.760Z,0.60
2018-12-03T18:47:35.453Z,0.87
2018-12-03T18:50:10.162Z,0.80
2018-12-03T18:52:39.010Z,0.90
2018-12-03T18:55:09.709Z,0.87
2018-12-03T18:57:38.678Z,0.70
2018-12-03T19:00:11.651Z,1.47
2018-12-03T19:02:40.537Z,2.63
2018-12-03T19:05:10.133Z,0.80
2018-12-03T19:07:39.093Z,0.60
2018-12-03T19:10:08.276Z,0.83
2018-12-03T19:12:37.174Z,0.60
2018-12-03T19:15:08.210Z,0.50
2018-12-03T19:17:37.161Z,2.10
2018-12-03T19:20:07.894Z,0.60
2018-12-03T19:22:36.929Z,0.93
2018-12-03T19:25:07.034Z,0.70
2018-12-03T19:27:35.898Z,1.23
2018-12-03T19:30:07.733Z,0.60
2018-12-03T19:32:36.574Z,0.60
2018-12-03T19:35:05.716Z,0.60
2018-12-03T19:37:35.393Z,0.90
2018-12-03T19:40:04.833Z,0.87
2018-12-03T19:42:33.745Z,0.60
2018-12-03T19:45:02.743Z,1.07
2018-12-03T19:47:31.644Z,0.70
2018-12-03T19:50:00.765Z,0.60
2018-12-03T19:52:29.561Z,1.07
2018-12-03T19:55:00.981Z,0.93
2018-12-03T19:57:32.606Z,0.60
2018-12-03T20:00:02.033Z,0.80
2018-12-03T20:02:30.901Z,1.13
2018-12-03T20:05:05.294Z,0.80
2018-12-03T20:07:34.467Z,0.77
2018-12-03T20:10:03.523Z,1.73
2018-12-03T20:12:32.454Z,0.90
2018-12-03T20:15:01.522Z,0.80
2018-12-03T20:17:34.651Z,1.30
2018-12-03T20:20:04.590Z,0.50
2018-12-03T20:22:40.609Z,0.97
2018-12-03T20:25:12.443Z,0.70
2018-12-03T20:27:48.428Z,0.90
2018-12-03T20:30:27.734Z,1.60
2018-12-03T20:33:07.269Z,0.70
2018-12-03T20:35:54.521Z,0.93
2018-12-03T20:38:38.465Z,0.83
2018-12-03T20:41:13.257Z,0.83
2018-12-03T20:43:42.734Z,0.57
2018-12-03T20:46:33.913Z,0.70
2018-12-03T20:51:13.605Z,0.50
2018-12-03T20:53:45.461Z,0.77
2018-12-03T20:56:16.263Z,1.00
2018-12-03T20:58:45.338Z,0.60
2018-12-03T21:01:14.169Z,0.77
2018-12-03T21:03:44.685Z,0.60
2018-12-03T21:06:15.109Z,0.80
2018-12-03T21:08:43.998Z,0.63
2018-12-03T21:11:12.910Z,0.97
2018-12-03T21:13:41.825Z,0.97
2018-12-03T21:16:10.736Z,0.67
2018-12-03T21:18:39.841Z,1.03
2018-12-03T21:21:10.293Z,0.70
2018-12-03T21:23:39.169Z,0.60
2018-12-03T21:26:08.120Z,0.83
2018-12-03T21:28:36.980Z,0.80
2018-12-03T21:31:06.457Z,0.60
2018-12-03T21:33:35.385Z,0.93
2018-12-03T21:36:04.233Z,0.70
2018-12-03T21:38:33.287Z,0.70
2018-12-03T21:41:02.131Z,0.70
2018-12-03T21:43:31.742Z,0.83
2018-12-03T21:46:00.653Z,0.70
2018-12-03T21:48:29.486Z,0.93
2018-12-03T21:50:58.461Z,1.13
2018-12-03T21:53:27.424Z,0.67
2018-12-03T21:55:57.631Z,0.50
2018-12-03T21:58:28.769Z,0.70
2018-12-03T22:00:57.602Z,0.70
2018-12-03T22:03:26.488Z,0.60
2018-12-03T22:05:56.262Z,0.70
2018-12-03T22:08:25.221Z,0.60
2018-12-03T22:10:54.074Z,0.70
2018-12-03T22:13:22.920Z,0.60
2018-12-03T22:15:51.765Z,0.80
2018-12-03T22:18:20.748Z,1.27
2018-12-03T22:20:49.691Z,0.70
2018-12-03T22:23:18.598Z,0.97
2018-12-03T22:25:47.502Z,0.50
2018-12-03T22:28:16.382Z,0.70
2018-12-03T22:30:47.015Z,0.60
2018-12-03T22:33:15.897Z,0.80
2018-12-03T22:35:44.814Z,0.70
2018-12-03T22:38:13.757Z,0.70
2018-12-03T22:40:42.675Z,0.53
2018-12-03T22:43:13.097Z,0.80
2018-12-03T22:45:42.009Z,1.33
2018-12-03T22:48:10.983Z,0.70
2018-12-03T22:50:39.909Z,0.70
2018-12-03T22:53:08.834Z,0.70
2018-12-03T22:55:39.597Z,0.70
2018-12-03T22:58:08.505Z,0.63
2018-12-03T23:00:37.776Z,1.53
2018-12-03T23:03:06.894Z,0.60
2018-12-03T23:05:35.729Z,1.57
2018-12-03T23:08:05.462Z,0.40
2018-12-03T23:10:34.357Z,1.33
2018-12-03T23:13:03.266Z,0.53
2018-12-03T23:15:32.122Z,0.97
2018-12-03T23:18:01.211Z,0.70
2018-12-03T23:20:30.229Z,1.37
2018-12-03T23:22:59.854Z,0.93
2018-12-03T23:25:28.689Z,0.60
2018-12-03T23:27:57.598Z,0.60
2018-12-03T23:30:26.711Z,0.93
2018-12-03T23:32:57.466Z,0.70
2018-12-03T23:35:26.454Z,1.07
2018-12-03T23:37:55.287Z,0.80
2018-12-03T23:40:24.194Z,0.90
2018-12-03T23:42:53.073Z,0.80
2018-12-03T23:45:25.024Z,1.43
2018-12-03T23:47:54.037Z,0.80
2018-12-03T23:50:22.917Z,0.70
2018-12-03T23:52:52.430Z,1.50
2018-12-03T23:55:22.559Z,1.03
2018-12-03T23:57:51.465Z,0.70
